Easton, WA

1:13 AM PDT on August 31, 2016 (GMT -0700)
Cle Elum Wa - GiddyLodge | | Change Station

Elev 2117 ft 47.21 °N, 121.11 °W | Updated 6 minutes ago

Overcast
Overcast
55.7 °F
Feels Like 55.7 °F
N
1.0
Wind Variable Wind from NW
Gusts 4.0 mph

Today
High -- | Low -- °F
--% Chance of Precip.
Yesterday
High -- | Low -- °F
Precip. -- in
Pressure 30.01 in
Visibility -9999.0 miles
Clouds Mostly Cloudy 200 ft
Overcast 900 ft
Dew Point 50 °F
Humidity 80%
Rainfall 0.00 in
Snow Depth Not available.
6:23 AM 7:45 PM
Waning Crescent, 1% visible
METAR KSMP 310756Z AUTO VRB03KT BKN002 OVC009 09/08 A3005 RMK AO2 SLP162 T00940078 401670089 $
Pressure 30.01 in
Visibility -9999.0 miles
Clouds Mostly Cloudy 200 ft
Overcast 900 ft
Dew Point 50 °F
Humidity 80%
Rainfall 0.00 in
Snow Depth Not available.
6:23 AM 7:45 PM
Waning Crescent, 1% visible
METAR KSMP 310756Z AUTO VRB03KT BKN002 OVC009 09/08 A3005 RMK AO2 SLP162 T00940078 401670089 $

10-Day Weather Forecast

Almanac

Astronomy

Aug. 31, 2016 Rise Set
Actual Time
Civil Twilight
Nautical Twilight
Astronomical Twilight
Moon
Length of Visible Light
Length of Day
Tomorrow will be .
, % of the Moon is Illuminated

Today's Extremes

State Highs State Lows

Community

WunderPhotos

Upload Photos

1,936,038 photos uploaded!

WunderBlog® & News

Nearby

Air Quality

  Air Quality AQ Index Pollutant
Not available.

Snow Depth

Station Depth Elevation

Earthquake Activity

City Distance Mag. Time & Date
Minimum magnitude displayed is 2.5.

Coastal Water Temperatures

Place Temperature

Stations

Nearby Weather Stations

Station Location Temp. Windchill Dew Point Humidity Wind Precip. Elev Updated Type
                   

Watches & Warnings

There are currently no watches in effect.